Time;durP1;ratioP1;P1;durP2;ratioP2;P2;SDS_P1;SDS_P2;PMS_P1;PMS_P2;Temp;Humidity;BMP_temperature;BMP_pressure;BME280_temperature;BME280_humidity;BME280_pressure;Samples;Min_cycle;Max_cycle;Signal;HPM_P1;HPM_P2
2022/09/03 00:02:09;;;;;;;1.37;0.93;;;26.80;53.20;;;;;;5036315;27;92143;-52
2022/09/03 00:04:39;;;;;;;0.90;0.80;;;26.80;53.20;;;;;;5048684;27;92043;-52
2022/09/03 00:07:17;;;;;;;0.70;0.70;;;26.80;53.30;;;;;;5041342;27;95394;-52
2022/09/03 00:09:48;;;;;;;2.13;1.30;;;26.80;53.40;;;;;;5036798;28;94937;-52
2022/09/03 00:12:18;;;;;;;0.97;0.70;;;26.80;53.30;;;;;;5036428;28;92025;-52
2022/09/03 00:14:49;;;;;;;1.10;0.73;;;26.80;53.40;;;;;;5037349;28;92012;-52
2022/09/03 00:17:18;;;;;;;0.73;0.67;;;26.70;53.40;;;;;;5036506;28;94196;-52
2022/09/03 00:19:48;;;;;;;0.70;0.70;;;26.80;53.50;;;;;;5036090;28;94084;-54
2022/09/03 00:22:17;;;;;;;0.73;0.73;;;26.70;53.40;;;;;;5037292;28;92191;-52
2022/09/03 00:24:45;;;;;;;1.67;0.90;;;26.70;53.50;;;;;;5038121;27;92856;-52
2022/09/03 00:27:17;;;;;;;2.87;1.00;;;26.70;53.50;;;;;;5033275;28;93148;-52
2022/09/03 00:29:47;;;;;;;0.93;0.80;;;26.70;53.50;;;;;;5033705;27;94137;-53
2022/09/03 00:32:17;;;;;;;1.17;0.80;;;26.70;53.70;;;;;;5032631;28;93651;-52
2022/09/03 00:34:46;;;;;;;1.47;0.90;;;26.70;53.60;;;;;;5030143;28;92213;-52
2022/09/03 00:37:15;;;;;;;0.80;0.80;;;26.70;53.60;;;;;;5031858;28;93672;-52
2022/09/03 00:39:43;;;;;;;0.70;0.70;;;26.60;53.60;;;;;;5035634;28;93977;-54
2022/09/03 00:42:28;;;;;;;1.50;0.90;;;26.60;53.60;;;;;;5034586;28;93984;-54
2022/09/03 00:45:05;;;;;;;1.87;0.63;;;26.60;53.60;;;;;;5035320;28;92183;-53
2022/09/03 00:47:39;;;;;;;0.70;0.70;;;26.60;53.70;;;;;;5034244;28;94080;-52
2022/09/03 00:50:10;;;;;;;1.23;0.80;;;26.60;53.70;;;;;;5034741;27;94121;-52
2022/09/03 00:52:44;;;;;;;1.33;1.00;;;26.60;53.70;;;;;;5038455;28;92150;-52
2022/09/03 00:55:17;;;;;;;0.70;0.57;;;26.60;53.80;;;;;;5041802;27;92305;-52
2022/09/03 00:57:52;;;;;;;2.13;0.80;;;26.50;53.80;;;;;;5047961;27;93830;-52
2022/09/03 01:00:20;;;;;;;1.23;0.90;;;26.60;53.90;;;;;;5049701;27;93806;-52
2022/09/03 01:02:56;;;;;;;1.83;1.20;;;26.60;53.90;;;;;;5039926;28;92588;-52
2022/09/03 01:05:34;;;;;;;2.27;1.20;;;26.50;53.80;;;;;;5039681;28;92114;-54
2022/09/03 01:08:09;;;;;;;2.27;1.20;;;26.50;53.90;;;;;;5039199;27;94197;-52
2022/09/03 01:10:43;;;;;;;1.93;1.40;;;26.50;53.90;;;;;;5038051;28;93610;-52
2022/09/03 01:13:14;;;;;;;4.00;1.93;;;26.50;53.80;;;;;;5039622;28;92157;-52
2022/09/03 01:15:45;;;;;;;2.30;1.60;;;26.60;54.00;;;;;;5030551;28;92699;-52
2022/09/03 01:18:20;;;;;;;5.23;1.97;;;26.50;54.00;;;;;;5039075;28;94148;-52
2022/09/03 01:20:53;;;;;;;2.63;1.60;;;26.50;54.00;;;;;;5038532;28;93935;-54
2022/09/03 01:23:42;;;;;;;1.57;1.43;;;26.50;54.10;;;;;;5038951;28;93053;-54
2022/09/03 01:26:31;;;;;;;1.70;1.60;;;26.50;54.20;;;;;;5025401;28;92202;-52
2022/09/03 01:29:07;;;;;;;1.97;1.50;;;26.40;54.10;;;;;;5022484;28;94411;-52
2022/09/03 01:31:39;;;;;;;4.67;1.10;;;26.40;54.30;;;;;;5039368;28;94021;-54
2022/09/03 01:34:13;;;;;;;2.23;1.40;;;26.30;54.30;;;;;;5039907;28;93152;-52
2022/09/03 01:36:46;;;;;;;1.60;1.40;;;26.30;54.30;;;;;;5040086;28;92716;-52
2022/09/03 01:39:17;;;;;;;2.47;1.70;;;26.30;54.30;;;;;;5038723;28;94108;-51
2022/09/03 01:44:42;;;;;;;2.10;1.07;;;26.40;54.50;;;;;;5038947;28;92157;-52
2022/09/03 01:47:14;;;;;;;1.80;1.20;;;26.40;54.50;;;;;;5039305;28;94516;-52
2022/09/03 01:49:45;;;;;;;3.73;1.33;;;26.30;54.50;;;;;;5037995;28;95229;-52
2022/09/03 01:52:14;;;;;;;2.50;1.90;;;26.30;54.40;;;;;;5039506;28;94816;-53
2022/09/03 01:54:51;;;;;;;2.67;1.43;;;26.30;54.50;;;;;;5039518;28;92052;-52
2022/09/03 01:57:25;;;;;;;2.30;1.70;;;26.30;54.40;;;;;;5039726;28;93031;-52
2022/09/03 02:00:07;;;;;;;2.90;1.50;;;26.30;54.60;;;;;;5039164;28;94146;-52
2022/09/03 02:02:35;;;;;;;1.50;1.40;;;26.20;54.50;;;;;;5039524;28;94037;-52
2022/09/03 02:05:08;;;;;;;3.57;1.90;;;26.20;54.60;;;;;;5039755;28;92194;-52
2022/09/03 02:07:37;;;;;;;3.60;1.70;;;26.30;54.70;;;;;;5040136;28;91351;-52
2022/09/03 02:10:07;;;;;;;1.50;1.37;;;26.20;55.30;;;;;;5037952;28;94539;-52
2022/09/03 02:12:37;;;;;;;2.33;1.80;;;26.20;54.70;;;;;;5021710;28;92793;-52
2022/09/03 02:15:10;;;;;;;4.07;2.40;;;26.20;54.70;;;;;;5014520;28;93136;-53
2022/09/03 02:17:39;;;;;;;2.13;1.63;;;26.20;54.80;;;;;;5019329;28;91933;-52
2022/09/03 02:20:10;;;;;;;2.30;1.97;;;26.10;55.50;;;;;;5021356;28;94120;-54
2022/09/03 02:22:38;;;;;;;2.33;1.80;;;26.20;55.10;;;;;;5018473;28;94002;-52
2022/09/03 02:25:07;;;;;;;2.03;1.40;;;26.10;55.00;;;;;;5020655;28;92170;-52
2022/09/03 02:27:35;;;;;;;2.30;1.67;;;26.10;55.00;;;;;;5039820;28;92176;-52
2022/09/03 02:30:04;;;;;;;2.50;1.53;;;26.10;55.00;;;;;;5026099;28;94340;-52
2022/09/03 02:32:33;;;;;;;3.10;1.90;;;26.10;55.00;;;;;;5017764;28;93803;-52
2022/09/03 02:35:01;;;;;;;1.67;0.90;;;26.20;55.10;;;;;;5019076;28;92027;-52
2022/09/03 02:37:29;;;;;;;2.00;1.10;;;26.20;55.10;;;;;;5018354;28;92100;-52
2022/09/03 02:39:57;;;;;;;2.07;1.30;;;26.10;55.10;;;;;;5017935;28;95183;-54
2022/09/03 02:42:26;;;;;;;1.10;1.00;;;26.20;55.20;;;;;;5018950;28;93900;-52
2022/09/03 02:44:55;;;;;;;2.10;1.40;;;26.20;55.80;;;;;;5018432;28;92111;-52
2022/09/03 02:47:23;;;;;;;1.37;1.20;;;26.20;55.20;;;;;;5022762;28;92120;-52
2022/09/03 02:49:53;;;;;;;1.93;1.00;;;26.10;55.20;;;;;;5025428;28;93184;-52
2022/09/03 02:52:20;;;;;;;1.40;1.00;;;26.10;55.30;;;;;;5009265;28;94088;-52
2022/09/03 02:54:48;;;;;;;2.03;1.13;;;26.30;55.40;;;;;;5010962;28;92624;-52
2022/09/03 02:57:16;;;;;;;1.50;0.90;;;26.10;55.30;;;;;;5011856;28;91707;-53
2022/09/03 02:59:54;;;;;;;2.93;0.83;;;26.10;55.30;;;;;;5007193;28;93811;-52
2022/09/03 03:02:22;;;;;;;1.10;0.90;;;26.10;55.30;;;;;;5009803;28;94227;-52
2022/09/03 03:04:53;;;;;;;2.17;1.00;;;26.10;55.40;;;;;;5013967;28;94707;-52
2022/09/03 03:07:21;;;;;;;0.70;0.70;;;26.10;55.40;;;;;;5009122;28;93842;-53
2022/09/03 03:09:49;;;;;;;1.30;0.60;;;26.10;55.50;;;;;;5010398;28;93185;-54
2022/09/03 03:12:18;;;;;;;0.60;0.57;;;26.10;55.50;;;;;;5037665;28;93994;-52
2022/09/03 03:14:46;;;;;;;0.87;0.83;;;26.10;55.50;;;;;;5038741;27;92087;-52
2022/09/03 03:17:14;;;;;;;0.70;0.70;;;26.00;55.50;;;;;;5037931;28;92117;-52
2022/09/03 03:19:42;;;;;;;4.13;0.63;;;26.10;55.60;;;;;;5037881;28;94211;-52
2022/09/03 03:22:11;;;;;;;4.23;0.60;;;26.10;56.20;;;;;;5038809;28;93900;-52
2022/09/03 03:24:39;;;;;;;0.70;0.63;;;26.10;55.60;;;;;;5037923;28;92047;-52
2022/09/03 03:27:09;;;;;;;1.80;0.93;;;26.10;55.70;;;;;;5037387;28;92873;-52
2022/09/03 03:29:38;;;;;;;0.80;0.80;;;26.10;55.60;;;;;;5037974;28;94190;-52
2022/09/03 03:32:06;;;;;;;0.97;0.83;;;26.00;55.60;;;;;;5038402;28;93792;-52
2022/09/03 03:34:34;;;;;;;1.00;0.90;;;26.10;55.70;;;;;;5038478;28;92076;-52
2022/09/03 03:37:03;;;;;;;1.50;0.80;;;26.00;55.70;;;;;;5037750;28;92105;-52
2022/09/03 03:39:32;;;;;;;1.10;0.80;;;26.00;55.60;;;;;;5037727;28;93122;-52
2022/09/03 03:42:00;;;;;;;1.40;1.10;;;26.00;55.70;;;;;;5050375;27;93852;-52
2022/09/03 03:44:28;;;;;;;2.60;0.60;;;26.10;55.70;;;;;;5037930;28;91991;-52
2022/09/03 03:46:56;;;;;;;0.70;0.70;;;26.00;55.70;;;;;;5040418;27;91387;-52
2022/09/03 03:49:24;;;;;;;1.37;0.90;;;26.00;55.70;;;;;;5037939;28;94204;-52
2022/09/03 03:51:52;;;;;;;1.97;1.17;;;26.00;55.70;;;;;;5038386;28;93867;-53
2022/09/03 03:54:21;;;;;;;0.80;0.80;;;26.00;55.80;;;;;;5036824;28;93078;-52
2022/09/03 03:56:50;;;;;;;1.57;1.03;;;26.00;55.70;;;;;;5038548;27;93585;-52
2022/09/03 03:59:22;;;;;;;0.93;0.60;;;25.80;55.70;;;;;;5028003;28;94049;-52
2022/09/03 04:01:50;;;;;;;1.57;0.83;;;26.10;55.80;;;;;;5037791;28;93987;-52
2022/09/03 04:04:18;;;;;;;2.60;0.80;;;26.20;56.00;;;;;;5037527;28;93105;-52
2022/09/03 04:06:46;;;;;;;1.83;1.03;;;26.10;55.90;;;;;;5038024;28;92006;-53
2022/09/03 04:09:14;;;;;;;0.63;0.60;;;26.10;55.90;;;;;;5037268;28;93291;-52
2022/09/03 04:11:42;;;;;;;1.00;0.90;;;26.00;56.50;;;;;;5030594;28;93840;-52
2022/09/03 04:14:11;;;;;;;1.03;0.50;;;26.00;55.90;;;;;;5020939;28;92154;-52
2022/09/03 04:16:39;;;;;;;1.27;1.17;;;26.00;56.00;;;;;;5009013;28;92072;-52
2022/09/03 04:19:07;;;;;;;1.23;0.70;;;26.00;55.90;;;;;;5025218;28;95418;-52
2022/09/03 04:21:35;;;;;;;0.60;0.60;;;26.00;55.90;;;;;;5029041;28;93774;-52
2022/09/03 04:24:04;;;;;;;0.70;0.57;;;26.00;55.90;;;;;;5021142;28;92270;-52
2022/09/03 04:26:32;;;;;;;1.33;0.70;;;26.00;56.00;;;;;;5036734;28;92113;-52
2022/09/03 04:29:02;;;;;;;0.77;0.70;;;26.00;56.00;;;;;;5018228;28;94370;-53
2022/09/03 04:31:32;;;;;;;0.87;0.80;;;26.00;56.00;;;;;;5041296;28;92680;-52
2022/09/03 04:34:00;;;;;;;2.43;0.97;;;26.00;56.10;;;;;;5039612;28;92125;-54
2022/09/03 04:36:28;;;;;;;1.20;1.03;;;26.00;56.10;;;;;;5021574;28;91478;-53
2022/09/03 04:38:58;;;;;;;1.77;0.87;;;26.00;56.10;;;;;;5033418;28;93330;-52
2022/09/03 04:41:27;;;;;;;2.77;0.67;;;26.00;56.10;;;;;;5021668;28;93837;-52
2022/09/03 04:43:56;;;;;;;0.67;0.40;;;26.00;56.10;;;;;;5019891;28;93021;-53
2022/09/03 04:46:25;;;;;;;2.07;0.60;;;25.90;56.10;;;;;;5020853;28;92661;-52
2022/09/03 04:48:56;;;;;;;2.10;1.03;;;26.00;56.10;;;;;;5020409;28;94085;-53
2022/09/03 04:51:26;;;;;;;1.07;0.93;;;26.00;56.20;;;;;;5021170;28;93937;-52
2022/09/03 04:53:56;;;;;;;1.07;0.97;;;26.00;56.20;;;;;;5020178;28;92650;-52
2022/09/03 04:56:25;;;;;;;1.10;0.83;;;25.90;56.10;;;;;;5037131;28;91982;-52
2022/09/03 04:58:54;;;;;;;0.70;0.70;;;25.90;56.10;;;;;;5030973;28;94126;-52
2022/09/03 05:01:23;;;;;;;0.67;0.43;;;25.90;56.20;;;;;;5034710;28;94023;-52
2022/09/03 05:03:51;;;;;;;1.63;0.80;;;25.90;56.20;;;;;;5035003;27;91922;-52
2022/09/03 05:06:21;;;;;;;0.67;0.67;;;25.90;56.40;;;;;;5019974;28;92215;-52
2022/09/03 05:08:49;;;;;;;0.93;0.67;;;25.90;56.30;;;;;;5019119;28;94072;-53
2022/09/03 05:11:17;;;;;;;0.77;0.70;;;25.90;56.50;;;;;;5031357;27;94818;-54
2022/09/03 05:13:47;;;;;;;1.67;0.60;;;25.90;56.50;;;;;;5058830;27;93145;-55
2022/09/03 05:16:15;;;;;;;0.57;0.57;;;25.90;57.20;;;;;;5060023;27;92018;-54
2022/09/03 05:18:43;;;;;;;0.60;0.53;;;25.90;56.60;;;;;;5047357;27;94044;-52
2022/09/03 05:21:12;;;;;;;0.57;0.50;;;25.90;56.50;;;;;;5037113;27;92810;-54
2022/09/03 05:23:42;;;;;;;0.60;0.50;;;25.90;56.60;;;;;;5039476;28;92044;-53
2022/09/03 05:26:12;;;;;;;1.13;0.80;;;25.90;56.50;;;;;;5040665;27;91475;-53
2022/09/03 05:28:40;;;;;;;0.47;0.47;;;25.90;56.70;;;;;;5047472;27;94102;-52
2022/09/03 05:31:09;;;;;;;0.60;0.53;;;25.90;56.60;;;;;;5052891;27;94002;-53
2022/09/03 05:33:38;;;;;;;1.10;0.73;;;26.00;56.70;;;;;;5040082;27;93024;-52
2022/09/03 05:36:08;;;;;;;1.43;1.33;;;26.00;56.60;;;;;;5040442;27;92232;-53
2022/09/03 05:38:36;;;;;;;0.57;0.57;;;26.00;56.60;;;;;;5052021;27;92056;-53
2022/09/03 05:41:06;;;;;;;0.60;0.60;;;26.00;56.60;;;;;;5059153;27;93906;-53
2022/09/03 05:43:34;;;;;;;0.40;0.40;;;26.00;56.70;;;;;;5054290;27;91872;-53
2022/09/03 05:46:03;;;;;;;0.67;0.50;;;26.00;57.30;;;;;;5048630;27;92369;-52
2022/09/03 05:48:32;;;;;;;0.93;0.80;;;26.10;56.70;;;;;;5047219;27;93080;-53
2022/09/03 05:51:00;;;;;;;0.90;0.53;;;26.10;56.70;;;;;;5047883;27;93954;-53
2022/09/03 05:53:28;;;;;;;0.60;0.60;;;26.10;56.70;;;;;;5050351;27;92742;-52
2022/09/03 05:55:57;;;;;;;0.70;0.60;;;26.10;56.80;;;;;;5056498;27;93182;-55
2022/09/03 05:58:29;;;;;;;1.17;0.67;;;26.10;56.70;;;;;;5057808;27;95141;-52
2022/09/03 06:00:57;;;;;;;0.70;0.70;;;26.10;56.60;;;;;;5059028;27;95129;-53
2022/09/03 06:03:26;;;;;;;0.80;0.60;;;26.10;56.80;;;;;;5043444;27;92328;-53
2022/09/03 06:05:54;;;;;;;0.90;0.60;;;26.20;56.70;;;;;;5051385;27;92506;-53
2022/09/03 06:08:22;;;;;;;2.23;0.60;;;26.20;56.80;;;;;;5059111;27;93293;-53
2022/09/03 06:10:50;;;;;;;0.77;0.67;;;26.20;57.40;;;;;;5052607;27;94380;-54
2022/09/03 06:13:18;;;;;;;2.97;0.77;;;26.20;56.80;;;;;;5052189;27;92071;-57
2022/09/03 06:15:47;;;;;;;0.60;0.60;;;26.20;56.80;;;;;;5043728;27;91354;-55
2022/09/03 06:18:15;;;;;;;0.87;0.80;;;26.20;56.90;;;;;;5037906;28;93278;-55
2022/09/03 06:20:43;;;;;;;0.80;0.60;;;26.20;56.90;;;;;;5039113;28;94011;-54
2022/09/03 06:23:11;;;;;;;0.60;0.60;;;26.20;57.60;;;;;;5038204;27;93032;-55
2022/09/03 06:25:39;;;;;;;0.53;0.53;;;26.20;56.90;;;;;;5038785;27;92208;-54
2022/09/03 06:28:09;;;;;;;1.60;0.70;;;26.20;57.00;;;;;;5046438;27;94227;-54
2022/09/03 06:30:37;;;;;;;0.53;0.53;;;26.20;57.00;;;;;;5047661;27;92662;-54
2022/09/03 06:33:06;;;;;;;0.80;0.70;;;26.20;56.90;;;;;;5048287;27;92476;-54
2022/09/03 06:35:34;;;;;;;0.60;0.43;;;26.20;57.00;;;;;;5052299;27;92149;-54
2022/09/03 06:38:11;;;;;;;1.90;0.83;;;26.10;56.90;;;;;;5043318;27;93074;-54
2022/09/03 06:40:39;;;;;;;0.60;0.60;;;26.20;57.00;;;;;;5038704;28;93925;-54
2022/09/03 06:43:07;;;;;;;1.00;0.60;;;26.20;56.90;;;;;;5039416;28;92011;-54
2022/09/03 06:45:35;;;;;;;0.90;0.60;;;26.20;57.00;;;;;;5038796;28;92186;-54
2022/09/03 06:48:03;;;;;;;0.80;0.80;;;26.20;56.90;;;;;;5037008;27;95157;-55
2022/09/03 06:50:32;;;;;;;0.93;0.77;;;26.20;56.90;;;;;;5037211;28;94960;-54
2022/09/03 06:53:01;;;;;;;2.27;0.63;;;26.20;56.90;;;;;;5037418;28;92069;-54
2022/09/03 06:55:29;;;;;;;5.40;0.90;;;26.20;56.90;;;;;;5035975;27;92250;-55
2022/09/03 06:57:57;;;;;;;1.73;1.10;;;26.30;56.90;;;;;;5034518;27;95958;-54
2022/09/03 07:00:26;;;;;;;1.00;0.83;;;26.20;56.80;;;;;;5038383;27;93882;-54
2022/09/03 07:02:58;;;;;;;2.03;1.60;;;26.30;56.90;;;;;;5034260;28;92104;-54
2022/09/03 07:05:27;;;;;;;1.80;1.20;;;26.30;57.00;;;;;;5039166;27;91337;-54
2022/09/03 07:07:57;;;;;;;2.07;1.53;;;26.30;56.90;;;;;;5037398;28;93270;-55
2022/09/03 07:10:26;;;;;;;2.13;1.20;;;26.30;57.00;;;;;;5036129;27;93404;-55
2022/09/03 07:12:55;;;;;;;1.43;1.17;;;26.40;56.90;;;;;;5030539;27;93168;-54
2022/09/03 07:15:23;;;;;;;2.40;1.40;;;26.50;57.00;;;;;;5036714;28;92155;-55
2022/09/03 07:17:51;;;;;;;2.87;2.03;;;26.40;57.00;;;;;;5036250;27;93211;-54
2022/09/03 07:20:19;;;;;;;2.20;1.10;;;26.40;57.10;;;;;;5036729;28;93950;-54
2022/09/03 07:22:47;;;;;;;1.93;1.50;;;26.40;57.00;;;;;;5037048;28;92154;-54
2022/09/03 07:25:17;;;;;;;3.17;1.53;;;26.40;57.00;;;;;;5034839;27;92641;-54
2022/09/03 07:27:46;;;;;;;2.03;1.17;;;26.40;57.10;;;;;;5035720;28;93297;-54
2022/09/03 07:30:14;;;;;;;1.23;1.07;;;26.40;57.70;;;;;;5036518;27;93822;-54
2022/09/03 07:32:42;;;;;;;3.27;1.20;;;26.50;57.00;;;;;;5030302;28;92834;-54
2022/09/03 07:35:10;;;;;;;1.70;1.20;;;26.50;57.00;;;;;;5032181;27;92643;-54
2022/09/03 07:37:40;;;;;;;1.23;1.00;;;26.50;57.10;;;;;;5034496;28;94066;-55
2022/09/03 07:40:09;;;;;;;0.63;0.63;;;26.40;57.00;;;;;;5035799;27;93918;-54
2022/09/03 07:42:39;;;;;;;1.93;1.20;;;26.40;57.10;;;;;;5035092;28;92420;-54
2022/09/03 07:45:09;;;;;;;3.60;0.80;;;26.50;57.10;;;;;;5035171;28;92425;-54
2022/09/03 07:47:37;;;;;;;1.27;1.00;;;26.50;57.10;;;;;;5038229;28;94287;-54
2022/09/03 07:50:06;;;;;;;1.03;0.70;;;26.50;57.10;;;;;;5037987;28;92655;-54
2022/09/03 07:52:34;;;;;;;1.17;1.00;;;26.50;57.00;;;;;;5037379;28;92587;-54
2022/09/03 07:55:03;;;;;;;1.37;0.73;;;26.50;57.20;;;;;;5039896;28;91409;-55
2022/09/03 07:57:31;;;;;;;0.87;0.80;;;26.80;57.30;;;;;;5038603;27;94169;-55
2022/09/03 08:00:01;;;;;;;2.53;0.97;;;26.50;57.80;;;;;;5042188;27;93986;-54
2022/09/03 08:02:29;;;;;;;1.53;0.70;;;26.50;57.20;;;;;;5039274;27;93043;-53
2022/09/03 08:04:57;;;;;;;1.67;0.80;;;26.40;57.20;;;;;;5039388;28;92646;-54
2022/09/03 08:07:24;;;;;;;1.40;0.90;;;26.50;57.20;;;;;;5039648;28;93147;-53
2022/09/03 08:09:54;;;;;;;1.63;1.20;;;26.50;57.30;;;;;;5041729;27;93758;-54
2022/09/03 08:12:22;;;;;;;1.40;1.07;;;26.50;57.30;;;;;;5036608;28;92045;-55
2022/09/03 08:14:51;;;;;;;2.50;1.30;;;26.50;57.30;;;;;;5039209;28;93051;-54
2022/09/03 08:17:20;;;;;;;4.40;1.77;;;26.50;57.30;;;;;;5039012;28;94150;-54
2022/09/03 08:19:48;;;;;;;2.33;1.20;;;26.50;57.30;;;;;;5040483;28;92919;-55
2022/09/03 08:22:16;;;;;;;2.63;1.70;;;26.50;57.30;;;;;;5040464;28;92149;-54
2022/09/03 08:24:44;;;;;;;3.53;1.20;;;26.50;57.40;;;;;;5030075;28;92116;-58
2022/09/03 08:27:12;;;;;;;8.60;1.97;;;27.20;57.90;;;;;;5037931;28;95279;-58
2022/09/03 08:29:40;;;;;;;6.03;2.10;;;26.50;57.40;;;;;;5038648;27;94892;-57
2022/09/03 08:32:08;;;;;;;4.23;1.47;;;26.50;57.50;;;;;;5036673;27;92169;-57
2022/09/03 08:34:42;;;;;;;2.33;1.00;;;26.50;57.50;;;;;;5034062;27;92215;-57
2022/09/03 08:37:11;;;;;;;1.43;0.90;;;26.40;57.40;;;;;;5036460;27;92271;-57
2022/09/03 08:39:39;;;;;;;1.70;1.37;;;26.40;57.50;;;;;;5049673;27;93927;-57
2022/09/03 08:42:22;;;;;;;1.50;0.97;;;26.30;57.50;;;;;;5052803;27;92133;-59
2022/09/03 08:44:52;;;;;;;0.87;0.87;;;26.30;57.60;;;;;;5032889;27;91402;-57
2022/09/03 08:47:22;;;;;;;0.70;0.60;;;26.20;57.60;;;;;;5041323;28;94288;-57
2022/09/03 08:49:54;;;;;;;0.90;0.80;;;26.20;57.70;;;;;;5040270;28;93907;-57
2022/09/03 08:52:26;;;;;;;0.90;0.53;;;26.20;57.80;;;;;;5040984;28;93214;-57
2022/09/03 08:54:55;;;;;;;0.77;0.77;;;26.20;57.80;;;;;;5040647;28;92235;-58
2022/09/03 08:57:23;;;;;;;0.63;0.60;;;26.20;57.80;;;;;;5039530;27;93281;-57
2022/09/03 08:59:54;;;;;;;0.87;0.60;;;26.20;57.80;;;;;;5040313;28;93974;-57
2022/09/03 09:02:25;;;;;;;0.87;0.77;;;26.20;57.80;;;;;;5038846;28;92576;-58
2022/09/03 09:04:58;;;;;;;0.77;0.73;;;26.20;57.80;;;;;;5039517;28;91999;-58
2022/09/03 09:07:31;;;;;;;1.10;1.00;;;26.10;57.80;;;;;;5038137;28;92236;-59
2022/09/03 09:10:03;;;;;;;0.43;0.43;;;26.20;58.00;;;;;;5037630;28;93904;-57
2022/09/03 09:12:35;;;;;;;0.73;0.60;;;26.10;57.90;;;;;;5037656;28;92177;-58
2022/09/03 09:15:13;;;;;;;1.57;0.50;;;26.20;58.00;;;;;;5032916;28;92216;-59
2022/09/03 09:17:51;;;;;;;1.67;0.67;;;26.20;58.00;;;;;;5035650;28;94150;-57
2022/09/03 09:20:25;;;;;;;1.70;0.70;;;26.20;58.00;;;;;;5030246;28;93738;-59
2022/09/03 09:22:55;;;;;;;0.80;0.80;;;26.30;58.10;;;;;;5039676;27;92214;-59
2022/09/03 09:25:25;;;;;;;3.70;0.80;;;26.30;58.00;;;;;;5037993;28;92207;-58
2022/09/03 09:27:56;;;;;;;0.50;0.50;;;26.30;58.10;;;;;;5037056;28;94292;-59
2022/09/03 09:30:24;;;;;;;1.17;0.60;;;26.20;58.00;;;;;;5035687;28;92968;-57
2022/09/03 09:32:54;;;;;;;0.60;0.60;;;26.30;58.20;;;;;;5037828;28;92369;-58
2022/09/03 09:35:23;;;;;;;1.30;0.60;;;26.30;58.20;;;;;;5036687;27;91397;-59
2022/09/03 09:37:52;;;;;;;0.60;0.60;;;26.30;58.20;;;;;;5035403;28;94129;-58
2022/09/03 09:40:25;;;;;;;2.00;0.70;;;26.30;58.20;;;;;;5036226;27;93976;-59
2022/09/03 09:43:04;;;;;;;1.67;0.83;;;26.40;58.20;;;;;;5028387;27;93604;-58
2022/09/03 09:45:33;;;;;;;1.13;0.67;;;26.40;58.20;;;;;;5035576;28;92703;-59
2022/09/03 09:48:01;;;;;;;0.70;0.60;;;26.40;58.30;;;;;;5035186;28;94254;-58
2022/09/03 09:50:30;;;;;;;2.37;0.90;;;26.40;58.30;;;;;;5037934;28;94034;-58
2022/09/03 09:53:04;;;;;;;1.60;1.00;;;26.40;58.30;;;;;;5034224;28;92087;-58
2022/09/03 09:55:32;;;;;;;0.67;0.67;;;26.40;58.30;;;;;;5030924;28;92821;-59
2022/09/03 09:58:08;;;;;;;0.90;0.90;;;26.50;58.30;;;;;;5033179;27;94163;-58
2022/09/03 10:00:41;;;;;;;0.40;0.40;;;26.50;58.40;;;;;;5033536;27;92794;-58
2022/09/03 10:03:12;;;;;;;0.93;0.83;;;26.50;59.00;;;;;;5036971;28;91996;-56
2022/09/03 10:05:43;;;;;;;0.70;0.70;;;26.50;58.40;;;;;;5038077;28;92244;-56
2022/09/03 10:08:20;;;;;;;1.10;0.77;;;26.50;58.40;;;;;;5032624;28;95224;-56
2022/09/03 10:10:49;;;;;;;1.77;0.77;;;26.50;58.40;;;;;;5035994;28;95120;-55
2022/09/03 10:13:20;;;;;;;0.73;0.70;;;26.50;58.40;;;;;;5038464;28;92096;-56
2022/09/03 10:15:50;;;;;;;0.63;0.57;;;26.50;58.40;;;;;;5038231;28;92387;-56
2022/09/03 10:18:27;;;;;;;0.63;0.57;;;26.50;58.40;;;;;;5039092;28;93064;-56
2022/09/03 10:20:59;;;;;;;2.87;0.60;;;26.60;58.30;;;;;;5043324;27;93884;-56
2022/09/03 10:23:27;;;;;;;1.93;0.80;;;26.60;58.40;;;;;;5053583;27;92091;-56
2022/09/03 10:26:03;;;;;;;0.80;0.70;;;26.60;58.40;;;;;;5040522;28;91351;-56
2022/09/03 10:28:34;;;;;;;1.00;0.70;;;26.60;58.40;;;;;;5039654;28;94249;-56
2022/09/03 10:31:20;;;;;;;1.03;0.60;;;26.60;58.50;;;;;;5044133;27;92784;-55
2022/09/03 10:33:49;;;;;;;1.03;0.70;;;26.70;58.40;;;;;;5042568;27;92917;-55
2022/09/03 10:36:22;;;;;;;0.80;0.70;;;26.70;58.50;;;;;;5048810;27;92282;-56
2022/09/03 10:38:53;;;;;;;2.20;0.60;;;26.70;58.80;;;;;;5045895;27;93166;-56
2022/09/03 10:41:28;;;;;;;0.67;0.60;;;26.80;58.90;;;;;;5045513;27;92852;-56
2022/09/03 10:44:27;;;;;;;0.73;0.73;;;26.80;58.90;;;;;;5047712;27;92245;-56
2022/09/03 10:46:59;;;;;;;0.60;0.53;;;26.80;58.90;;;;;;5046843;27;92537;-56
2022/09/03 10:49:38;;;;;;;3.67;0.67;;;26.90;58.90;;;;;;5045151;27;94216;-57
2022/09/03 10:52:11;;;;;;;1.80;0.97;;;26.90;58.90;;;;;;5019397;28;93903;-57
2022/09/03 10:54:46;;;;;;;1.67;0.90;;;27.00;59.20;;;;;;5019217;28;92077;-57
2022/09/03 10:57:19;;;;;;;0.70;0.70;;;27.00;59.30;;;;;;5037991;27;92065;-56
2022/09/03 10:59:54;;;;;;;1.00;0.90;;;27.00;59.30;;;;;;5036917;28;95294;-57
2022/09/03 11:02:47;;;;;;;1.00;0.90;;;27.00;59.30;;;;;;5030545;28;94908;-55
2022/09/03 11:05:16;;;;;;;1.03;0.87;;;27.10;59.80;;;;;;5007322;28;92161;-57
2022/09/03 11:07:46;;;;;;;1.33;1.00;;;27.10;60.10;;;;;;5037437;28;92866;-56
2022/09/03 11:10:18;;;;;;;1.13;0.93;;;27.20;60.10;;;;;;5034227;28;93495;-56
2022/09/03 11:12:48;;;;;;;2.70;0.80;;;27.20;60.00;;;;;;5037036;28;92861;-57
2022/09/03 11:15:23;;;;;;;0.50;0.50;;;27.20;60.00;;;;;;5035633;28;92049;-56
2022/09/03 11:17:56;;;;;;;0.77;0.77;;;27.30;60.10;;;;;;5035373;28;91413;-55
2022/09/03 11:20:25;;;;;;;0.70;0.70;;;27.30;61.10;;;;;;5036252;27;94113;-57
2022/09/03 11:22:55;;;;;;;0.57;0.57;;;27.30;60.20;;;;;;5037276;28;93848;-56
2022/09/03 11:25:27;;;;;;;1.03;0.90;;;27.30;60.30;;;;;;5036727;28;93153;-57
2022/09/03 11:27:59;;;;;;;2.20;0.60;;;27.40;61.30;;;;;;5035290;28;92064;-56
2022/09/03 11:30:33;;;;;;;1.93;0.90;;;27.40;60.50;;;;;;5037218;28;94411;-57
2022/09/03 11:33:06;;;;;;;0.73;0.70;;;27.50;60.60;;;;;;5035653;28;93815;-57
2022/09/03 11:35:40;;;;;;;1.70;0.60;;;27.50;61.10;;;;;;5034948;28;92004;-56
2022/09/03 11:38:23;;;;;;;0.87;0.80;;;27.50;61.90;;;;;;5037219;28;92115;-56
2022/09/03 11:40:58;;;;;;;0.80;0.80;;;27.50;63.80;;;;;;5036405;28;94198;-57
2022/09/03 11:43:27;;;;;;;1.50;0.80;;;27.50;65.90;;;;;;5037090;28;92826;-57
2022/09/03 11:46:03;;;;;;;1.93;0.87;;;27.50;68.50;;;;;;5034533;28;92246;-57
2022/09/03 11:48:37;;;;;;;1.10;0.70;;;;;;;;;;5037662;28;92706;-57
2022/09/03 11:51:05;;;;;;;1.33;0.70;;;27.40;68.50;;;;;;5036613;28;95045;-57
2022/09/03 11:53:37;;;;;;;1.00;0.90;;;27.50;67.00;;;;;;5026610;28;96332;-57
2022/09/03 11:56:17;;;;;;;0.73;0.73;;;27.50;64.60;;;;;;5036490;28;92184;-57
2022/09/03 11:58:46;;;;;;;0.80;0.80;;;27.50;66.00;;;;;;5036582;28;92164;-56
2022/09/03 12:01:16;;;;;;;0.50;0.50;;;27.60;63.90;;;;;;5036745;28;94124;-56
2022/09/03 12:03:45;;;;;;;2.20;1.00;;;27.60;69.70;;;;;;5037089;28;92898;-56
2022/09/03 12:06:32;;;;;;;0.70;0.70;;;27.60;64.70;;;;;;5034781;28;92057;-56
2022/09/03 12:09:21;;;;;;;0.87;0.70;;;27.60;63.40;;;;;;5035500;28;91387;-57
2022/09/03 12:11:54;;;;;;;1.73;0.70;;;27.60;63.30;;;;;;5035779;28;94297;-57
2022/09/03 12:14:25;;;;;;;1.17;0.77;;;27.50;64.80;;;;;;5036169;28;94133;-57
2022/09/03 12:17:04;;;;;;;0.57;0.57;;;27.60;63.60;;;;;;5036957;28;92893;-56
2022/09/03 12:19:37;;;;;;;0.70;0.60;;;27.70;65.80;;;;;;5037292;28;92781;-57
2022/09/03 12:22:06;;;;;;;0.70;0.70;;;;;;;;;;5036469;28;93292;-56
2022/09/03 12:24:36;;;;;;;0.80;0.80;;;;;;;;;;5033907;28;93962;-57
2022/09/03 12:27:05;;;;;;;1.60;0.93;;;27.60;63.40;;;;;;5036633;28;92315;-56
2022/09/03 12:29:33;;;;;;;1.73;1.63;;;27.80;59.10;;;;;;5028572;28;92117;-57
2022/09/03 12:32:08;;;;;;;0.80;0.80;;;27.80;59.80;;;;;;5036122;27;94145;-56
2022/09/03 12:34:36;;;;;;;0.90;0.60;;;27.80;63.10;;;;;;5037524;28;93940;-57
2022/09/03 12:37:06;;;;;;;1.80;0.97;;;;;;;;;;5040589;28;92149;-57
2022/09/03 12:39:35;;;;;;;0.97;0.73;;;;;;;;;;5035623;28;92141;-57
2022/09/03 12:42:25;;;;;;;2.00;0.90;;;;;;;;;;5037609;28;93691;-57
2022/09/03 12:44:53;;;;;;;1.00;0.90;;;;;;;;;;5039361;28;93783;-57
2022/09/03 12:47:22;;;;;;;1.13;0.60;;;;;;;;;;5039909;28;92031;-57
2022/09/03 12:50:07;;;;;;;0.83;0.73;;;;;;;;;;5039552;28;92057;-57
2022/09/03 12:52:35;;;;;;;1.23;0.90;;;;;;;;;;5039569;28;93399;-57
2022/09/03 12:55:06;;;;;;;1.53;0.77;;;;;;;;;;5039856;28;93963;-56
2022/09/03 12:57:35;;;;;;;1.00;0.90;;;;;;;;;;5041730;28;91801;-57
2022/09/03 13:00:04;;;;;;;0.60;0.60;;;;;;;;;;5041644;28;91285;-56
2022/09/03 13:02:41;;;;;;;0.80;0.80;;;;;;;;;;5040879;28;94100;-56
2022/09/03 13:05:11;;;;;;;1.43;0.80;;;;;;;;;;5040778;28;94048;-56
2022/09/03 13:07:40;;;;;;;1.23;1.10;;;;;;;;;;5041094;28;92888;-56
2022/09/03 13:10:21;;;;;;;3.07;0.93;;;;;;;;;;5041231;28;92053;-56
2022/09/03 13:12:49;;;;;;;0.90;0.67;;;;;;;;;;5020505;28;93118;-56
2022/09/03 13:15:22;;;;;;;1.60;0.87;;;;;;;;;;5020573;28;93088;-55